Sunday, August 19, 2018, 1:54 PM EDT
Back to Local

KDUJ, Du Bois-jefferson County

Location: Reynoldsville, PA, United States Lat: 41.183
Local Time: 1:54 PM EDT (17:54 GMT) Lon: -78.883
Time Zone: US/Eastern Elev: 1820 ft

Show me the last for .
Show Decoded

2018-08-19 13:09 METAR KDUJ 191709Z AUTO VRB04KT 10SM FEW021 SCT029 OVC037 21/16 A3004 RMK AO2
                 T02110161 $ =
2018-08-19 12:53 METAR KDUJ 191653Z AUTO VRB04KT 10SM SCT019 BKN024 OVC033 20/16 A3004 RMK AO2
                 SLP167 T02000161 $ =
2018-08-19 12:20 METAR KDUJ 191620Z AUTO 01003KT 10SM BKN021 BKN036 21/16 A3004 RMK AO2 T02060161
                 $ =
2018-08-19 11:53 METAR KDUJ 191553Z AUTO VRB03KT 10SM 20/16 A3005 RMK AO2 SLP167 T02000161 $ =
2018-08-19 11:50 METAR KDUJ 191550Z AUTO 05004KT 10SM 19/16 A3005 RMK AO2 $ =
2018-08-19 11:42 METAR KDUJ 191542Z AUTO 00000KT 10SM BKN015 19/16 A3005 RMK AO2 T01890156 $ =
2018-08-19 10:53 METAR KDUJ 191453Z AUTO 06004KT 10SM OVC010 18/15 A3004 RMK AO2 SLP166 T01780150
                 53002 $ =
2018-08-19 10:49 METAR KDUJ 191449Z AUTO 05005KT 10SM OVC010 18/16 A3004 RMK AO2 $ =
2018-08-19 10:12 METAR KDUJ 191412Z AUTO 07006KT 10SM OVC009 17/15 A3003 RMK AO2 T01720150 $ =
2018-08-19 09:53 METAR KDUJ 191353Z AUTO 04008KT 10SM OVC011 17/15 A3003 RMK AO2 SLP162 T01720150
                 $ =
2018-08-19 09:44 METAR KDUJ 191344Z AUTO 07009KT 10SM BKN012 17/15 A3003 RMK AO2 T01720150 $ =
2018-08-19 08:53 METAR KDUJ 191253Z AUTO 04004KT 10SM CLR 16/15 A3003 RMK AO2 SLP163 T01610150 $
                 =
2018-08-19 07:53 METAR KDUJ 191153Z AUTO 02005KT 7SM CLR 14/14 A3002 RMK AO2 SLP160 70004
                 T01440139 10144 20133 53014 $ =
2018-08-19 06:53 METAR KDUJ 191053Z AUTO 36003KT 10SM CLR 14/13 A3000 RMK AO2 SLP152 T01390133 $
                 =
2018-08-19 06:31 METAR KDUJ 191031Z AUTO 00000KT 10SM SCT027 14/13 A3000 RMK AO2 T01390128 $ =
2018-08-19 05:53 METAR KDUJ 190953Z AUTO 03004KT 10SM BKN027 14/13 A2999 RMK AO2 SLP146 T01390133
                 $ =
2018-08-19 04:53 METAR KDUJ 190853Z AUTO 02004KT 10SM BKN027 14/13 A2998 RMK AO2 SLP143 T01390133
                 51002 $ =
2018-08-19 04:49 METAR KDUJ 190849Z AUTO 01004KT 10SM BKN027 14/13 A2998 RMK AO2 $ =
2018-08-19 03:53 METAR KDUJ 190753Z AUTO 00000KT 9SM SCT025 13/13 A2998 RMK AO2 SLP143 T01330133
                 $ =
2018-08-19 02:53 METAR KDUJ 190653Z AUTO 00000KT 10SM CLR 13/13 A2998 RMK AO2 SLP142 T01330133 $
                 =
2018-08-19 01:53 METAR KDUJ 190553Z AUTO 03006KT 10SM CLR 14/13 A2999 RMK AO2 SLP145 T01440133
                 10206 20144 58001 $ =
2018-08-19 00:53 METAR KDUJ 190453Z AUTO 05005KT 10SM CLR 14/13 A2999 RMK AO2 SLP147 T01440133
                 402500144 $ =
2018-08-18 23:53 METAR KDUJ 190353Z AUTO 04006KT 10SM CLR 16/14 A2999 RMK AO2 SLP147 T01560139 $
                 =
2018-08-18 22:53 METAR KDUJ 190253Z AUTO 03006KT 10SM CLR 17/14 A2999 RMK AO2 SLP146 T01670144
                 52015 $ =
2018-08-18 21:53 METAR KDUJ 190153Z AUTO 04007KT 10SM CLR 18/14 A2997 RMK AO2 SLP139 T01780144 $
                 =
2018-08-18 20:53 METAR KDUJ 190053Z AUTO 03007KT 10SM CLR 19/15 A2996 RMK AO2 SLP135 T01890150 $
                 =
2018-08-18 19:53 METAR KDUJ 182353Z AUTO 05008KT 10SM CLR 21/16 A2994 RMK AO2 SLP128 T02060156
                 10250 20206 53009 $ =
2018-08-18 18:53 METAR KDUJ 182253Z AUTO 01008KT 10SM CLR 23/16 A2993 RMK AO2 SLP122 T02280156 =
2018-08-18 17:53 METAR KDUJ 182153Z AUTO 35010KT 10SM CLR 24/16 A2992 RMK AO2 SLP117 T02440161 =
2018-08-18 16:53 METAR KDUJ 182053Z AUTO 02013KT 10SM FEW038 SCT046 24/17 A2992 RMK AO2 SLP118
                 T02390167 58002 =
2018-08-18 15:53 METAR KDUJ 181953Z AUTO 04007KT 10SM FEW030 24/17 A2992 RMK AO2 SLP117 T02390172
                 =
2018-08-18 15:18 METAR KDUJ 181918Z AUTO 01011KT 10SM SCT022 SCT031 BKN039 23/17 A2992 RMK AO2
                 T02280172 =
2018-08-18 14:53 METAR KDUJ 181853Z AUTO 04010KT 10SM SCT019 BKN026 BKN033 23/19 A2992 RMK AO2
                 SLP120 T02330189 =
2018-08-18 14:50 METAR KDUJ 181850Z AUTO 04009KT 10SM SCT019 BKN026 BKN033 23/18 A2992 RMK AO2 =
2018-08-18 14:43 METAR KDUJ 181843Z AUTO 03012KT 10SM SCT017 SCT026 23/19 A2992 RMK AO2 T02330189
                 =

Support USWX by starting your Amazon purchase here.